sensor_id;sensor_type;location;lat;lon;timestamp;temperature;humidity
8662;DHT22;29684;47.722;9.388;2023-05-07T00:01:04;14.40;99.90
8662;DHT22;29684;47.722;9.388;2023-05-07T00:03:50;14.40;99.90
8662;DHT22;29684;47.722;9.388;2023-05-07T00:06:34;14.20;99.90
8662;DHT22;29684;47.722;9.388;2023-05-07T00:09:18;14.10;99.90
8662;DHT22;29684;47.722;9.388;2023-05-07T00:12:03;14.10;99.90
8662;DHT22;29684;47.722;9.388;2023-05-07T00:14:47;14.20;99.90
8662;DHT22;29684;47.722;9.388;2023-05-07T00:17:32;14.20;99.90
8662;DHT22;29684;47.722;9.388;2023-05-07T00:20:16;14.20;99.90
8662;DHT22;29684;47.722;9.388;2023-05-07T00:23:00;14.30;99.90
8662;DHT22;29684;47.722;9.388;2023-05-07T00:25:45;14.30;99.90
8662;DHT22;29684;47.722;9.388;2023-05-07T00:28:29;14.30;99.90
8662;DHT22;29684;47.722;9.388;2023-05-07T00:31:14;14.30;99.90
8662;DHT22;29684;47.722;9.388;2023-05-07T00:33:58;14.30;99.90
8662;DHT22;29684;47.722;9.388;2023-05-07T00:36:42;14.30;99.90
8662;DHT22;29684;47.722;9.388;2023-05-07T00:39:26;14.30;99.90
8662;DHT22;29684;47.722;9.388;2023-05-07T00:42:10;14.30;99.90
8662;DHT22;29684;47.722;9.388;2023-05-07T00:44:54;14.30;99.90
8662;DHT22;29684;47.722;9.388;2023-05-07T00:47:40;14.40;99.90
8662;DHT22;29684;47.722;9.388;2023-05-07T00:50:25;14.30;99.90
8662;DHT22;29684;47.722;9.388;2023-05-07T00:53:09;14.40;99.90
8662;DHT22;29684;47.722;9.388;2023-05-07T00:55:53;14.50;99.90
8662;DHT22;29684;47.722;9.388;2023-05-07T00:58:38;14.50;99.90
8662;DHT22;29684;47.722;9.388;2023-05-07T01:01:22;14.30;99.90
8662;DHT22;29684;47.722;9.388;2023-05-07T01:04:07;13.90;99.90
8662;DHT22;29684;47.722;9.388;2023-05-07T01:06:51;13.80;99.90
8662;DHT22;29684;47.722;9.388;2023-05-07T01:09:36;13.70;99.90
8662;DHT22;29684;47.722;9.388;2023-05-07T01:12:21;13.70;99.90
8662;DHT22;29684;47.722;9.388;2023-05-07T01:15:08;13.80;99.90
8662;DHT22;29684;47.722;9.388;2023-05-07T01:17:53;13.80;99.90
8662;DHT22;29684;47.722;9.388;2023-05-07T01:20:37;13.60;99.90
8662;DHT22;29684;47.722;9.388;2023-05-07T01:23:22;13.50;99.90
8662;DHT22;29684;47.722;9.388;2023-05-07T01:26:06;13.60;99.90
8662;DHT22;29684;47.722;9.388;2023-05-07T01:28:50;13.50;99.90
8662;DHT22;29684;47.722;9.388;2023-05-07T01:31:35;13.40;99.90
8662;DHT22;29684;47.722;9.388;2023-05-07T01:34:21;13.30;99.90
8662;DHT22;29684;47.722;9.388;2023-05-07T01:37:06;13.20;99.90
8662;DHT22;29684;47.722;9.388;2023-05-07T01:39:51;13.20;99.90
8662;DHT22;29684;47.722;9.388;2023-05-07T01:42:36;13.20;99.90
8662;DHT22;29684;47.722;9.388;2023-05-07T01:45:20;13.20;99.90
8662;DHT22;29684;47.722;9.388;2023-05-07T01:48:06;13.00;99.90
8662;DHT22;29684;47.722;9.388;2023-05-07T01:50:51;12.90;99.90
8662;DHT22;29684;47.722;9.388;2023-05-07T01:53:36;12.80;99.90
8662;DHT22;29684;47.722;9.388;2023-05-07T01:56:20;12.80;99.90
8662;DHT22;29684;47.722;9.388;2023-05-07T01:59:05;12.70;99.90
8662;DHT22;29684;47.722;9.388;2023-05-07T02:01:49;12.60;99.90
8662;DHT22;29684;47.722;9.388;2023-05-07T02:04:33;12.60;99.90
8662;DHT22;29684;47.722;9.388;2023-05-07T02:07:17;12.50;99.90
8662;DHT22;29684;47.722;9.388;2023-05-07T02:10:01;12.40;99.90
8662;DHT22;29684;47.722;9.388;2023-05-07T02:12:45;12.40;99.90
8662;DHT22;29684;47.722;9.388;2023-05-07T02:15:29;12.60;99.90
8662;DHT22;29684;47.722;9.388;2023-05-07T02:18:13;12.80;99.90
8662;DHT22;29684;47.722;9.388;2023-05-07T02:20:57;13.00;99.90
8662;DHT22;29684;47.722;9.388;2023-05-07T02:23:42;12.80;99.90
8662;DHT22;29684;47.722;9.388;2023-05-07T02:26:26;12.80;99.90
8662;DHT22;29684;47.722;9.388;2023-05-07T02:29:10;12.80;99.90
8662;DHT22;29684;47.722;9.388;2023-05-07T02:31:54;12.80;99.90
8662;DHT22;29684;47.722;9.388;2023-05-07T02:34:39;12.60;99.90
8662;DHT22;29684;47.722;9.388;2023-05-07T02:37:23;12.50;99.90
8662;DHT22;29684;47.722;9.388;2023-05-07T02:40:07;12.40;99.90
8662;DHT22;29684;47.722;9.388;2023-05-07T02:42:52;12.50;99.90
8662;DHT22;29684;47.722;9.388;2023-05-07T02:45:36;12.30;99.90
8662;DHT22;29684;47.722;9.388;2023-05-07T02:48:21;12.40;99.90
8662;DHT22;29684;47.722;9.388;2023-05-07T02:51:05;12.50;99.90
8662;DHT22;29684;47.722;9.388;2023-05-07T02:53:49;12.50;99.90
8662;DHT22;29684;47.722;9.388;2023-05-07T02:56:34;12.50;99.90
8662;DHT22;29684;47.722;9.388;2023-05-07T02:59:18;12.40;99.90
8662;DHT22;29684;47.722;9.388;2023-05-07T03:02:02;12.40;99.90
8662;DHT22;29684;47.722;9.388;2023-05-07T03:04:46;12.40;99.90
8662;DHT22;29684;47.722;9.388;2023-05-07T03:07:30;12.40;99.90
8662;DHT22;29684;47.722;9.388;2023-05-07T03:10:15;12.20;99.90
8662;DHT22;29684;47.722;9.388;2023-05-07T03:13:00;12.00;99.90
8662;DHT22;29684;47.722;9.388;2023-05-07T03:15:44;11.90;99.90
8662;DHT22;29684;47.722;9.388;2023-05-07T03:18:29;11.80;99.90
8662;DHT22;29684;47.722;9.388;2023-05-07T03:21:13;11.70;99.90
8662;DHT22;29684;47.722;9.388;2023-05-07T03:23:57;11.80;99.90
8662;DHT22;29684;47.722;9.388;2023-05-07T03:26:41;11.80;99.90
8662;DHT22;29684;47.722;9.388;2023-05-07T03:29:25;11.90;99.90
8662;DHT22;29684;47.722;9.388;2023-05-07T03:32:10;11.80;99.90
8662;DHT22;29684;47.722;9.388;2023-05-07T03:34:54;11.80;99.90
8662;DHT22;29684;47.722;9.388;2023-05-07T03:37:38;11.90;99.90
8662;DHT22;29684;47.722;9.388;2023-05-07T03:40:23;11.90;99.90
8662;DHT22;29684;47.722;9.388;2023-05-07T03:43:07;11.70;99.90
8662;DHT22;29684;47.722;9.388;2023-05-07T03:45:51;11.50;99.90
8662;DHT22;29684;47.722;9.388;2023-05-07T03:48:35;11.50;99.90
8662;DHT22;29684;47.722;9.388;2023-05-07T03:51:19;11.40;99.90
8662;DHT22;29684;47.722;9.388;2023-05-07T03:54:03;11.50;99.90
8662;DHT22;29684;47.722;9.388;2023-05-07T03:56:47;11.50;99.90
8662;DHT22;29684;47.722;9.388;2023-05-07T03:59:31;11.60;99.90
8662;DHT22;29684;47.722;9.388;2023-05-07T04:02:16;11.50;99.90
8662;DHT22;29684;47.722;9.388;2023-05-07T04:05:00;11.40;99.90
8662;DHT22;29684;47.722;9.388;2023-05-07T04:07:44;11.50;99.90
8662;DHT22;29684;47.722;9.388;2023-05-07T04:10:29;11.40;99.90
8662;DHT22;29684;47.722;9.388;2023-05-07T04:13:14;11.70;99.90
8662;DHT22;29684;47.722;9.388;2023-05-07T04:15:58;11.70;99.90
8662;DHT22;29684;47.722;9.388;2023-05-07T04:18:42;11.40;99.90
8662;DHT22;29684;47.722;9.388;2023-05-07T04:21:27;11.30;99.90
8662;DHT22;29684;47.722;9.388;2023-05-07T04:24:11;11.20;99.90
8662;DHT22;29684;47.722;9.388;2023-05-07T04:26:55;11.20;99.90
8662;DHT22;29684;47.722;9.388;2023-05-07T04:29:40;11.30;99.90
8662;DHT22;29684;47.722;9.388;2023-05-07T04:32:26;11.50;99.90
8662;DHT22;29684;47.722;9.388;2023-05-07T04:35:10;11.70;99.90
8662;DHT22;29684;47.722;9.388;2023-05-07T04:37:55;11.70;99.90
8662;DHT22;29684;47.722;9.388;2023-05-07T04:40:39;11.70;99.90
8662;DHT22;29684;47.722;9.388;2023-05-07T04:43:24;11.50;99.90
8662;DHT22;29684;47.722;9.388;2023-05-07T04:46:08;11.50;99.90
8662;DHT22;29684;47.722;9.388;2023-05-07T04:48:53;11.60;99.90
8662;DHT22;29684;47.722;9.388;2023-05-07T04:51:37;11.70;99.90
8662;DHT22;29684;47.722;9.388;2023-05-07T04:54:22;11.80;99.90
8662;DHT22;29684;47.722;9.388;2023-05-07T04:57:06;12.10;99.90
8662;DHT22;29684;47.722;9.388;2023-05-07T04:59:50;12.10;99.90
8662;DHT22;29684;47.722;9.388;2023-05-07T05:02:35;12.30;99.90
8662;DHT22;29684;47.722;9.388;2023-05-07T05:05:19;12.50;99.90
8662;DHT22;29684;47.722;9.388;2023-05-07T05:08:03;12.60;99.90
8662;DHT22;29684;47.722;9.388;2023-05-07T05:10:47;12.80;99.90
8662;DHT22;29684;47.722;9.388;2023-05-07T05:13:33;12.70;99.90
8662;DHT22;29684;47.722;9.388;2023-05-07T05:16:18;12.80;99.90
8662;DHT22;29684;47.722;9.388;2023-05-07T05:19:02;12.70;99.90
8662;DHT22;29684;47.722;9.388;2023-05-07T05:21:46;12.60;99.90
8662;DHT22;29684;47.722;9.388;2023-05-07T05:24:31;12.40;99.90
8662;DHT22;29684;47.722;9.388;2023-05-07T05:27:15;12.40;99.90
8662;DHT22;29684;47.722;9.388;2023-05-07T05:29:59;12.40;99.90
8662;DHT22;29684;47.722;9.388;2023-05-07T05:32:44;12.40;99.90
8662;DHT22;29684;47.722;9.388;2023-05-07T05:35:29;12.40;99.90
8662;DHT22;29684;47.722;9.388;2023-05-07T05:38:14;12.50;99.90
8662;DHT22;29684;47.722;9.388;2023-05-07T05:40:58;12.30;99.90
8662;DHT22;29684;47.722;9.388;2023-05-07T05:43:42;12.60;99.90
8662;DHT22;29684;47.722;9.388;2023-05-07T05:46:26;12.60;99.90
8662;DHT22;29684;47.722;9.388;2023-05-07T05:49:10;12.80;99.90
8662;DHT22;29684;47.722;9.388;2023-05-07T05:51:55;13.10;99.90
8662;DHT22;29684;47.722;9.388;2023-05-07T05:54:40;13.20;99.90
8662;DHT22;29684;47.722;9.388;2023-05-07T05:57:24;13.30;99.90
8662;DHT22;29684;47.722;9.388;2023-05-07T06:00:09;13.40;99.90
8662;DHT22;29684;47.722;9.388;2023-05-07T06:02:53;13.60;99.90
8662;DHT22;29684;47.722;9.388;2023-05-07T06:05:37;13.70;99.90
8662;DHT22;29684;47.722;9.388;2023-05-07T06:08:22;13.90;99.90
8662;DHT22;29684;47.722;9.388;2023-05-07T06:11:06;14.10;99.90
8662;DHT22;29684;47.722;9.388;2023-05-07T06:13:50;14.10;99.90
8662;DHT22;29684;47.722;9.388;2023-05-07T06:16:34;14.20;99.90
8662;DHT22;29684;47.722;9.388;2023-05-07T06:19:18;14.30;99.90
8662;DHT22;29684;47.722;9.388;2023-05-07T06:22:07;14.40;99.90
8662;DHT22;29684;47.722;9.388;2023-05-07T06:24:51;14.40;99.90
8662;DHT22;29684;47.722;9.388;2023-05-07T06:27:35;14.60;99.90
8662;DHT22;29684;47.722;9.388;2023-05-07T06:30:19;14.70;99.90
8662;DHT22;29684;47.722;9.388;2023-05-07T06:33:03;14.70;99.90
8662;DHT22;29684;47.722;9.388;2023-05-07T06:35:47;14.80;99.90
8662;DHT22;29684;47.722;9.388;2023-05-07T06:38:31;14.90;99.90
8662;DHT22;29684;47.722;9.388;2023-05-07T06:41:16;15.10;99.90
8662;DHT22;29684;47.722;9.388;2023-05-07T06:44:00;15.20;99.90
8662;DHT22;29684;47.722;9.388;2023-05-07T06:46:44;15.50;99.90
8662;DHT22;29684;47.722;9.388;2023-05-07T06:49:29;15.40;99.90
8662;DHT22;29684;47.722;9.388;2023-05-07T06:52:13;15.60;99.90
8662;DHT22;29684;47.722;9.388;2023-05-07T06:54:57;15.60;99.90
8662;DHT22;29684;47.722;9.388;2023-05-07T06:57:41;15.60;99.90
8662;DHT22;29684;47.722;9.388;2023-05-07T07:00:25;15.80;99.90
8662;DHT22;29684;47.722;9.388;2023-05-07T07:03:09;15.90;99.90
8662;DHT22;29684;47.722;9.388;2023-05-07T07:05:54;16.00;99.90
8662;DHT22;29684;47.722;9.388;2023-05-07T07:08:39;16.00;99.90
8662;DHT22;29684;47.722;9.388;2023-05-07T07:11:23;16.00;99.90
8662;DHT22;29684;47.722;9.388;2023-05-07T07:14:07;16.00;99.90
8662;DHT22;29684;47.722;9.388;2023-05-07T07:16:51;16.10;99.90
8662;DHT22;29684;47.722;9.388;2023-05-07T07:19:36;16.10;99.90
8662;DHT22;29684;47.722;9.388;2023-05-07T07:22:21;16.20;99.90
8662;DHT22;29684;47.722;9.388;2023-05-07T07:25:06;16.10;99.90
8662;DHT22;29684;47.722;9.388;2023-05-07T07:27:51;16.20;99.90
8662;DHT22;29684;47.722;9.388;2023-05-07T07:30:35;16.40;99.90
8662;DHT22;29684;47.722;9.388;2023-05-07T07:33:19;16.50;99.90
8662;DHT22;29684;47.722;9.388;2023-05-07T07:36:04;16.60;99.90
8662;DHT22;29684;47.722;9.388;2023-05-07T07:38:49;16.80;99.90
8662;DHT22;29684;47.722;9.388;2023-05-07T07:41:33;17.00;99.90
8662;DHT22;29684;47.722;9.388;2023-05-07T07:44:17;17.20;99.90
8662;DHT22;29684;47.722;9.388;2023-05-07T07:47:02;17.30;99.90
8662;DHT22;29684;47.722;9.388;2023-05-07T07:49:46;17.30;99.90
8662;DHT22;29684;47.722;9.388;2023-05-07T07:52:30;17.10;99.90
8662;DHT22;29684;47.722;9.388;2023-05-07T07:55:14;17.10;99.90
8662;DHT22;29684;47.722;9.388;2023-05-07T07:58:01;17.20;99.90
8662;DHT22;29684;47.722;9.388;2023-05-07T08:00:46;17.10;99.90
8662;DHT22;29684;47.722;9.388;2023-05-07T08:03:31;17.30;99.90
8662;DHT22;29684;47.722;9.388;2023-05-07T08:06:16;17.30;99.90
8662;DHT22;29684;47.722;9.388;2023-05-07T08:09:01;17.30;99.90
8662;DHT22;29684;47.722;9.388;2023-05-07T08:11:45;17.30;99.90
8662;DHT22;29684;47.722;9.388;2023-05-07T08:14:29;17.50;99.90
8662;DHT22;29684;47.722;9.388;2023-05-07T08:17:14;17.60;99.90
8662;DHT22;29684;47.722;9.388;2023-05-07T08:19:59;17.70;99.90
8662;DHT22;29684;47.722;9.388;2023-05-07T08:22:44;17.90;99.90
8662;DHT22;29684;47.722;9.388;2023-05-07T08:25:28;17.90;99.90
8662;DHT22;29684;47.722;9.388;2023-05-07T08:28:12;18.10;99.90
8662;DHT22;29684;47.722;9.388;2023-05-07T08:30:56;18.30;99.90
8662;DHT22;29684;47.722;9.388;2023-05-07T08:33:40;18.60;99.90
8662;DHT22;29684;47.722;9.388;2023-05-07T08:36:25;18.40;99.90
8662;DHT22;29684;47.722;9.388;2023-05-07T08:39:09;18.40;99.90
8662;DHT22;29684;47.722;9.388;2023-05-07T08:41:55;18.50;99.90
8662;DHT22;29684;47.722;9.388;2023-05-07T08:44:43;18.70;99.90
8662;DHT22;29684;47.722;9.388;2023-05-07T08:47:34;18.90;99.90
8662;DHT22;29684;47.722;9.388;2023-05-07T08:50:22;19.20;99.90
8662;DHT22;29684;47.722;9.388;2023-05-07T08:53:07;19.30;99.90
8662;DHT22;29684;47.722;9.388;2023-05-07T08:55:51;19.70;99.90
8662;DHT22;29684;47.722;9.388;2023-05-07T08:58:36;19.80;99.90
8662;DHT22;29684;47.722;9.388;2023-05-07T09:01:21;19.60;99.90
8662;DHT22;29684;47.722;9.388;2023-05-07T09:04:05;19.70;99.90
8662;DHT22;29684;47.722;9.388;2023-05-07T09:06:50;19.70;99.90
8662;DHT22;29684;47.722;9.388;2023-05-07T09:09:36;20.00;99.90
8662;DHT22;29684;47.722;9.388;2023-05-07T09:12:21;19.90;99.90
8662;DHT22;29684;47.722;9.388;2023-05-07T09:15:06;19.70;99.90
8662;DHT22;29684;47.722;9.388;2023-05-07T09:17:51;19.30;99.90
8662;DHT22;29684;47.722;9.388;2023-05-07T09:20:39;19.60;99.90
8662;DHT22;29684;47.722;9.388;2023-05-07T09:23:24;20.00;99.90
8662;DHT22;29684;47.722;9.388;2023-05-07T09:26:08;20.00;99.90
8662;DHT22;29684;47.722;9.388;2023-05-07T09:28:55;19.70;99.90
8662;DHT22;29684;47.722;9.388;2023-05-07T09:31:40;20.00;99.90
8662;DHT22;29684;47.722;9.388;2023-05-07T09:34:24;20.00;99.90
8662;DHT22;29684;47.722;9.388;2023-05-07T09:37:13;20.10;99.90
8662;DHT22;29684;47.722;9.388;2023-05-07T09:39:58;20.10;99.90
8662;DHT22;29684;47.722;9.388;2023-05-07T09:42:42;20.20;99.90
8662;DHT22;29684;47.722;9.388;2023-05-07T09:48:06;20.50;99.90
8662;DHT22;29684;47.722;9.388;2023-05-07T09:50:55;20.60;99.90
8662;DHT22;29684;47.722;9.388;2023-05-07T09:53:43;21.20;99.90
8662;DHT22;29684;47.722;9.388;2023-05-07T09:56:30;21.40;99.90
8662;DHT22;29684;47.722;9.388;2023-05-07T09:59:16;21.20;99.90
8662;DHT22;29684;47.722;9.388;2023-05-07T10:02:01;21.20;99.90
8662;DHT22;29684;47.722;9.388;2023-05-07T10:04:46;21.10;99.90
8662;DHT22;29684;47.722;9.388;2023-05-07T10:07:31;21.10;99.90
8662;DHT22;29684;47.722;9.388;2023-05-07T10:10:17;20.80;99.90
8662;DHT22;29684;47.722;9.388;2023-05-07T10:13:02;21.20;99.90
8662;DHT22;29684;47.722;9.388;2023-05-07T10:15:50;21.50;99.90
8662;DHT22;29684;47.722;9.388;2023-05-07T10:18:35;22.10;99.90
8662;DHT22;29684;47.722;9.388;2023-05-07T10:21:23;22.30;99.90
8662;DHT22;29684;47.722;9.388;2023-05-07T10:24:15;22.30;99.90
8662;DHT22;29684;47.722;9.388;2023-05-07T10:27:04;21.60;99.90
8662;DHT22;29684;47.722;9.388;2023-05-07T10:32:46;22.60;99.90
8662;DHT22;29684;47.722;9.388;2023-05-07T10:35:39;21.80;99.90
8662;DHT22;29684;47.722;9.388;2023-05-07T10:38:24;21.50;99.90
8662;DHT22;29684;47.722;9.388;2023-05-07T10:41:09;21.90;99.90
8662;DHT22;29684;47.722;9.388;2023-05-07T10:43:54;21.60;99.90
8662;DHT22;29684;47.722;9.388;2023-05-07T10:46:38;21.90;99.90
8662;DHT22;29684;47.722;9.388;2023-05-07T10:49:23;22.50;99.90
8662;DHT22;29684;47.722;9.388;2023-05-07T10:52:22;22.80;99.90
8662;DHT22;29684;47.722;9.388;2023-05-07T10:58:26;23.30;99.90
8662;DHT22;29684;47.722;9.388;2023-05-07T11:01:11;23.40;99.90
8662;DHT22;29684;47.722;9.388;2023-05-07T11:04:16;23.60;99.90
8662;DHT22;29684;47.722;9.388;2023-05-07T11:09:57;23.20;99.90
8662;DHT22;29684;47.722;9.388;2023-05-07T11:12:52;23.00;99.90
8662;DHT22;29684;47.722;9.388;2023-05-07T11:15:47;22.90;99.90
8662;DHT22;29684;47.722;9.388;2023-05-07T11:18:51;22.50;99.90
8662;DHT22;29684;47.722;9.388;2023-05-07T11:21:39;22.30;99.90
8662;DHT22;29684;47.722;9.388;2023-05-07T11:24:24;22.60;99.90
8662;DHT22;29684;47.722;9.388;2023-05-07T11:27:09;23.00;99.90
8662;DHT22;29684;47.722;9.388;2023-05-07T11:29:54;23.10;99.90
8662;DHT22;29684;47.722;9.388;2023-05-07T11:32:39;23.80;99.90
8662;DHT22;29684;47.722;9.388;2023-05-07T11:35:24;24.10;99.90
8662;DHT22;29684;47.722;9.388;2023-05-07T11:38:09;24.10;99.90
8662;DHT22;29684;47.722;9.388;2023-05-07T11:40:58;23.40;99.90
8662;DHT22;29684;47.722;9.388;2023-05-07T11:44:04;23.00;99.90
8662;DHT22;29684;47.722;9.388;2023-05-07T11:46:49;22.70;99.90
8662;DHT22;29684;47.722;9.388;2023-05-07T11:49:34;22.80;99.90
8662;DHT22;29684;47.722;9.388;2023-05-07T11:52:21;22.40;99.90
8662;DHT22;29684;47.722;9.388;2023-05-07T11:55:05;23.00;99.90
8662;DHT22;29684;47.722;9.388;2023-05-07T11:57:49;23.10;99.90
8662;DHT22;29684;47.722;9.388;2023-05-07T12:00:33;23.30;99.90
8662;DHT22;29684;47.722;9.388;2023-05-07T12:03:17;22.90;99.90
8662;DHT22;29684;47.722;9.388;2023-05-07T12:06:02;23.60;99.90
8662;DHT22;29684;47.722;9.388;2023-05-07T12:08:47;24.10;99.90
8662;DHT22;29684;47.722;9.388;2023-05-07T12:11:31;24.50;99.90
8662;DHT22;29684;47.722;9.388;2023-05-07T12:14:15;24.20;99.90
8662;DHT22;29684;47.722;9.388;2023-05-07T12:17:00;24.00;99.90
8662;DHT22;29684;47.722;9.388;2023-05-07T12:19:47;23.60;99.90
8662;DHT22;29684;47.722;9.388;2023-05-07T12:22:31;23.80;99.90
8662;DHT22;29684;47.722;9.388;2023-05-07T12:25:19;24.00;99.90
8662;DHT22;29684;47.722;9.388;2023-05-07T12:28:04;23.80;99.90
8662;DHT22;29684;47.722;9.388;2023-05-07T12:30:50;23.70;99.90
8662;DHT22;29684;47.722;9.388;2023-05-07T12:33:35;23.50;99.90
8662;DHT22;29684;47.722;9.388;2023-05-07T12:36:20;23.80;99.90
8662;DHT22;29684;47.722;9.388;2023-05-07T12:39:09;25.40;99.90
8662;DHT22;29684;47.722;9.388;2023-05-07T12:41:57;24.60;99.90
8662;DHT22;29684;47.722;9.388;2023-05-07T12:44:46;25.40;99.90
8662;DHT22;29684;47.722;9.388;2023-05-07T12:47:30;25.50;99.90
8662;DHT22;29684;47.722;9.388;2023-05-07T12:50:18;24.50;99.90
8662;DHT22;29684;47.722;9.388;2023-05-07T12:53:06;24.70;99.90
8662;DHT22;29684;47.722;9.388;2023-05-07T12:55:55;24.70;99.90
8662;DHT22;29684;47.722;9.388;2023-05-07T12:58:40;24.70;99.90
8662;DHT22;29684;47.722;9.388;2023-05-07T13:01:29;24.70;99.90
8662;DHT22;29684;47.722;9.388;2023-05-07T13:04:14;24.20;99.90
8662;DHT22;29684;47.722;9.388;2023-05-07T13:06:59;23.80;99.90
8662;DHT22;29684;47.722;9.388;2023-05-07T13:09:44;23.80;99.90
8662;DHT22;29684;47.722;9.388;2023-05-07T13:12:28;23.80;99.90
8662;DHT22;29684;47.722;9.388;2023-05-07T13:15:12;23.70;99.90
8662;DHT22;29684;47.722;9.388;2023-05-07T13:17:56;23.40;99.90
8662;DHT22;29684;47.722;9.388;2023-05-07T13:20:40;23.60;99.90
8662;DHT22;29684;47.722;9.388;2023-05-07T13:23:24;23.60;99.90
8662;DHT22;29684;47.722;9.388;2023-05-07T13:26:09;23.70;99.90
8662;DHT22;29684;47.722;9.388;2023-05-07T13:28:54;23.80;99.90
8662;DHT22;29684;47.722;9.388;2023-05-07T13:31:38;23.80;99.90
8662;DHT22;29684;47.722;9.388;2023-05-07T13:34:27;23.40;99.90
8662;DHT22;29684;47.722;9.388;2023-05-07T13:37:11;23.30;99.90
8662;DHT22;29684;47.722;9.388;2023-05-07T13:39:55;23.20;99.90
8662;DHT22;29684;47.722;9.388;2023-05-07T13:42:39;22.90;99.90
8662;DHT22;29684;47.722;9.388;2023-05-07T13:45:25;22.90;99.90
8662;DHT22;29684;47.722;9.388;2023-05-07T13:48:10;23.00;99.90
8662;DHT22;29684;47.722;9.388;2023-05-07T13:50:54;23.00;99.90
8662;DHT22;29684;47.722;9.388;2023-05-07T13:53:39;23.10;99.90
8662;DHT22;29684;47.722;9.388;2023-05-07T13:56:23;23.30;99.90
8662;DHT22;29684;47.722;9.388;2023-05-07T13:59:07;23.70;99.90
8662;DHT22;29684;47.722;9.388;2023-05-07T14:01:52;24.40;99.90
8662;DHT22;29684;47.722;9.388;2023-05-07T14:04:37;25.10;99.90
8662;DHT22;29684;47.722;9.388;2023-05-07T14:07:21;25.50;99.90
8662;DHT22;29684;47.722;9.388;2023-05-07T14:10:06;24.60;99.90
8662;DHT22;29684;47.722;9.388;2023-05-07T14:12:50;24.30;99.90
8662;DHT22;29684;47.722;9.388;2023-05-07T14:15:36;24.10;99.90
8662;DHT22;29684;47.722;9.388;2023-05-07T14:18:21;23.70;99.90
8662;DHT22;29684;47.722;9.388;2023-05-07T14:21:06;23.50;99.90
8662;DHT22;29684;47.722;9.388;2023-05-07T14:23:51;23.30;99.90
8662;DHT22;29684;47.722;9.388;2023-05-07T14:26:35;23.50;99.90
8662;DHT22;29684;47.722;9.388;2023-05-07T14:29:20;23.70;99.90
8662;DHT22;29684;47.722;9.388;2023-05-07T14:32:04;23.70;99.90
8662;DHT22;29684;47.722;9.388;2023-05-07T14:34:48;24.30;99.90
8662;DHT22;29684;47.722;9.388;2023-05-07T14:37:33;25.00;99.90
8662;DHT22;29684;47.722;9.388;2023-05-07T14:40:17;25.20;99.90
8662;DHT22;29684;47.722;9.388;2023-05-07T14:43:01;24.80;99.90
8662;DHT22;29684;47.722;9.388;2023-05-07T14:45:46;24.10;99.90
8662;DHT22;29684;47.722;9.388;2023-05-07T14:48:30;23.50;99.90
8662;DHT22;29684;47.722;9.388;2023-05-07T14:51:14;21.40;99.90
8662;DHT22;29684;47.722;9.388;2023-05-07T14:53:58;22.90;99.90
8662;DHT22;29684;47.722;9.388;2023-05-07T14:56:43;23.40;99.90
8662;DHT22;29684;47.722;9.388;2023-05-07T14:59:27;24.30;99.90
8662;DHT22;29684;47.722;9.388;2023-05-07T15:02:12;25.40;99.90
8662;DHT22;29684;47.722;9.388;2023-05-07T15:04:56;24.80;99.90
8662;DHT22;29684;47.722;9.388;2023-05-07T15:07:41;25.00;99.90
8662;DHT22;29684;47.722;9.388;2023-05-07T15:10:25;25.50;99.90
8662;DHT22;29684;47.722;9.388;2023-05-07T15:13:10;25.80;99.90
8662;DHT22;29684;47.722;9.388;2023-05-07T15:15:55;25.90;99.90
8662;DHT22;29684;47.722;9.388;2023-05-07T15:18:39;25.40;99.90
8662;DHT22;29684;47.722;9.388;2023-05-07T15:21:23;24.70;99.90
8662;DHT22;29684;47.722;9.388;2023-05-07T15:24:07;24.30;99.90
8662;DHT22;29684;47.722;9.388;2023-05-07T15:26:52;23.70;99.90
8662;DHT22;29684;47.722;9.388;2023-05-07T15:29:36;23.30;99.90
8662;DHT22;29684;47.722;9.388;2023-05-07T15:32:21;23.10;99.90
8662;DHT22;29684;47.722;9.388;2023-05-07T15:35:05;22.70;99.90
8662;DHT22;29684;47.722;9.388;2023-05-07T15:37:50;22.50;99.90
8662;DHT22;29684;47.722;9.388;2023-05-07T15:40:35;22.30;99.90
8662;DHT22;29684;47.722;9.388;2023-05-07T15:43:21;22.30;99.90
8662;DHT22;29684;47.722;9.388;2023-05-07T15:46:05;22.20;99.90
8662;DHT22;29684;47.722;9.388;2023-05-07T15:48:50;22.30;99.90
8662;DHT22;29684;47.722;9.388;2023-05-07T15:51:35;22.30;99.90
8662;DHT22;29684;47.722;9.388;2023-05-07T15:54:19;22.20;99.90
8662;DHT22;29684;47.722;9.388;2023-05-07T15:57:04;22.10;99.90
8662;DHT22;29684;47.722;9.388;2023-05-07T15:59:50;22.00;99.90
8662;DHT22;29684;47.722;9.388;2023-05-07T16:02:34;21.90;99.90
8662;DHT22;29684;47.722;9.388;2023-05-07T16:05:20;21.80;99.90
8662;DHT22;29684;47.722;9.388;2023-05-07T16:08:04;21.80;99.90
8662;DHT22;29684;47.722;9.388;2023-05-07T16:10:48;21.80;99.90
8662;DHT22;29684;47.722;9.388;2023-05-07T16:13:34;21.50;99.90
8662;DHT22;29684;47.722;9.388;2023-05-07T16:16:18;21.40;99.90
8662;DHT22;29684;47.722;9.388;2023-05-07T16:19:02;21.20;99.90
8662;DHT22;29684;47.722;9.388;2023-05-07T16:21:47;21.00;99.90
8662;DHT22;29684;47.722;9.388;2023-05-07T16:24:31;20.90;99.90
8662;DHT22;29684;47.722;9.388;2023-05-07T16:27:16;20.80;99.90
8662;DHT22;29684;47.722;9.388;2023-05-07T16:30:00;20.80;99.90
8662;DHT22;29684;47.722;9.388;2023-05-07T16:32:44;20.70;99.90
8662;DHT22;29684;47.722;9.388;2023-05-07T16:35:28;20.50;99.90
8662;DHT22;29684;47.722;9.388;2023-05-07T16:38:14;20.40;99.90
8662;DHT22;29684;47.722;9.388;2023-05-07T16:40:59;20.40;99.90
8662;DHT22;29684;47.722;9.388;2023-05-07T16:43:43;20.40;99.90
8662;DHT22;29684;47.722;9.388;2023-05-07T16:46:27;20.30;99.90
8662;DHT22;29684;47.722;9.388;2023-05-07T16:49:11;20.30;99.90
8662;DHT22;29684;47.722;9.388;2023-05-07T16:51:55;20.30;99.90
8662;DHT22;29684;47.722;9.388;2023-05-07T16:54:39;20.30;99.90
8662;DHT22;29684;47.722;9.388;2023-05-07T16:57:24;20.30;99.90
8662;DHT22;29684;47.722;9.388;2023-05-07T17:00:08;20.20;99.90
8662;DHT22;29684;47.722;9.388;2023-05-07T17:02:54;20.10;99.90
8662;DHT22;29684;47.722;9.388;2023-05-07T17:05:38;19.90;99.90
8662;DHT22;29684;47.722;9.388;2023-05-07T17:08:23;20.00;99.90
8662;DHT22;29684;47.722;9.388;2023-05-07T17:11:07;19.80;99.90
8662;DHT22;29684;47.722;9.388;2023-05-07T17:13:51;19.80;99.90
8662;DHT22;29684;47.722;9.388;2023-05-07T17:16:36;19.70;99.90
8662;DHT22;29684;47.722;9.388;2023-05-07T17:19:20;19.70;99.90
8662;DHT22;29684;47.722;9.388;2023-05-07T17:22:04;19.70;99.90
8662;DHT22;29684;47.722;9.388;2023-05-07T17:24:48;19.60;99.90
8662;DHT22;29684;47.722;9.388;2023-05-07T17:27:33;19.60;99.90
8662;DHT22;29684;47.722;9.388;2023-05-07T17:30:17;19.40;99.90
8662;DHT22;29684;47.722;9.388;2023-05-07T17:33:01;19.30;99.90
8662;DHT22;29684;47.722;9.388;2023-05-07T17:35:46;19.20;99.90
8662;DHT22;29684;47.722;9.388;2023-05-07T17:38:31;19.00;99.90
8662;DHT22;29684;47.722;9.388;2023-05-07T17:41:15;18.80;99.90
8662;DHT22;29684;47.722;9.388;2023-05-07T17:43:59;18.60;99.90
8662;DHT22;29684;47.722;9.388;2023-05-07T17:46:43;18.40;99.90
8662;DHT22;29684;47.722;9.388;2023-05-07T17:49:27;18.30;99.90